sensor_id;sensor_type;location;lat;lon;timestamp;noise_LAeq;noise_LA_min;noise_LA_max;noise_LA01;noise_LA95
42701;Laerm;28316;49.504;8.526;2023-11-19T00:00:26;37.38;28.67;40.03;;
42701;Laerm;28316;49.504;8.526;2023-11-19T00:02:51;37.83;30.89;44.23;;
42701;Laerm;28316;49.504;8.526;2023-11-19T00:05:18;37.94;31.68;40.27;;
42701;Laerm;28316;49.504;8.526;2023-11-19T00:07:44;38.02;32.35;40.03;;
42701;Laerm;28316;49.504;8.526;2023-11-19T00:10:10;49.88;26.91;85.69;;
42701;Laerm;28316;49.504;8.526;2023-11-19T00:12:42;46.52;40.13;51.40;;
42701;Laerm;28316;49.504;8.526;2023-11-19T00:15:08;44.03;39.78;47.67;;
42701;Laerm;28316;49.504;8.526;2023-11-19T00:17:38;41.23;39.58;46.52;;
42701;Laerm;28316;49.504;8.526;2023-11-19T00:20:06;40.97;38.81;67.95;;
42701;Laerm;28316;49.504;8.526;2023-11-19T00:22:33;45.79;38.67;51.71;;
42701;Laerm;28316;49.504;8.526;2023-11-19T00:24:59;43.10;39.08;51.67;;
42701;Laerm;28316;49.504;8.526;2023-11-19T00:27:25;42.87;39.34;47.70;;
42701;Laerm;28316;49.504;8.526;2023-11-19T00:29:51;44.13;39.81;47.81;;
42701;Laerm;28316;49.504;8.526;2023-11-19T00:32:17;45.83;39.58;61.41;;
42701;Laerm;28316;49.504;8.526;2023-11-19T00:34:44;45.86;40.03;51.25;;
42701;Laerm;28316;49.504;8.526;2023-11-19T00:37:10;41.86;39.58;46.59;;
42701;Laerm;28316;49.504;8.526;2023-11-19T00:39:36;43.42;39.70;51.12;;
42701;Laerm;28316;49.504;8.526;2023-11-19T00:42:02;43.59;39.46;47.22;;
42701;Laerm;28316;49.504;8.526;2023-11-19T00:44:28;41.35;39.70;45.83;;
42701;Laerm;28316;49.504;8.526;2023-11-19T00:46:53;45.91;39.92;47.93;;
42701;Laerm;28316;49.504;8.526;2023-11-19T00:49:19;46.94;45.51;48.15;;
42701;Laerm;28316;49.504;8.526;2023-11-19T00:51:45;46.93;41.30;49.44;;
42701;Laerm;28316;49.504;8.526;2023-11-19T00:54:11;44.96;39.70;64.83;;
42701;Laerm;28316;49.504;8.526;2023-11-19T00:56:37;43.04;40.03;46.97;;
42701;Laerm;28316;49.504;8.526;2023-11-19T00:59:03;47.64;40.23;51.47;;
42701;Laerm;28316;49.504;8.526;2023-11-19T01:01:29;47.66;40.33;51.59;;
42701;Laerm;28316;49.504;8.526;2023-11-19T01:03:55;47.65;41.75;57.09;;
42701;Laerm;28316;49.504;8.526;2023-11-19T01:06:30;47.68;40.23;60.11;;
42701;Laerm;28316;49.504;8.526;2023-11-19T01:08:56;48.28;46.28;57.47;;
42701;Laerm;28316;49.504;8.526;2023-11-19T01:11:23;49.88;46.20;54.31;;
42701;Laerm;28316;49.504;8.526;2023-11-19T01:13:49;49.63;41.61;54.56;;
42701;Laerm;28316;49.504;8.526;2023-11-19T01:16:15;49.28;46.66;52.00;;
42701;Laerm;28316;49.504;8.526;2023-11-19T01:18:41;49.07;46.43;54.06;;
42701;Laerm;28316;49.504;8.526;2023-11-19T01:21:07;47.78;45.33;51.07;;
42701;Laerm;28316;49.504;8.526;2023-11-19T01:23:34;46.68;40.03;54.11;;
42701;Laerm;28316;49.504;8.526;2023-11-19T01:26:00;48.04;40.71;53.04;;
42701;Laerm;28316;49.504;8.526;2023-11-19T01:28:26;46.78;40.23;50.51;;
42701;Laerm;28316;49.504;8.526;2023-11-19T01:30:52;44.44;39.78;48.29;;
42701;Laerm;28316;49.504;8.526;2023-11-19T01:33:18;47.52;45.75;51.22;;
42701;Laerm;28316;49.504;8.526;2023-11-19T01:35:44;46.97;40.89;51.39;;
42701;Laerm;28316;49.504;8.526;2023-11-19T01:38:10;43.44;39.70;51.39;;
42701;Laerm;28316;49.504;8.526;2023-11-19T01:40:37;42.67;40.03;47.70;;
42701;Laerm;28316;49.504;8.526;2023-11-19T01:43:03;45.55;40.03;47.77;;
42701;Laerm;28316;49.504;8.526;2023-11-19T01:45:30;47.60;46.02;51.48;;
42701;Laerm;28316;49.504;8.526;2023-11-19T01:47:57;45.44;40.13;47.88;;
42701;Laerm;28316;49.504;8.526;2023-11-19T01:50:24;45.56;39.92;47.54;;
42701;Laerm;28316;49.504;8.526;2023-11-19T01:52:54;43.88;39.70;48.07;;
42701;Laerm;28316;49.504;8.526;2023-11-19T01:55:24;48.77;46.73;54.07;;
42701;Laerm;28316;49.504;8.526;2023-11-19T01:57:53;47.49;46.64;49.93;;
42701;Laerm;28316;49.504;8.526;2023-11-19T02:00:21;48.11;46.43;51.96;;
42701;Laerm;28316;49.504;8.526;2023-11-19T02:02:48;48.02;46.87;51.47;;
42701;Laerm;28316;49.504;8.526;2023-11-19T02:05:14;47.47;46.45;48.32;;
42701;Laerm;28316;49.504;8.526;2023-11-19T02:07:40;47.26;46.66;47.90;;
42701;Laerm;28316;49.504;8.526;2023-11-19T02:10:07;47.26;46.73;47.83;;
42701;Laerm;28316;49.504;8.526;2023-11-19T02:12:40;47.15;46.55;47.74;;
42701;Laerm;28316;49.504;8.526;2023-11-19T02:15:10;46.94;46.33;47.48;;
42701;Laerm;28316;49.504;8.526;2023-11-19T02:17:36;47.06;46.38;47.84;;
42701;Laerm;28316;49.504;8.526;2023-11-19T02:20:06;47.17;46.55;50.44;;
42701;Laerm;28316;49.504;8.526;2023-11-19T02:22:37;47.34;46.76;47.91;;
42701;Laerm;28316;49.504;8.526;2023-11-19T02:25:25;47.53;46.89;48.10;;
42701;Laerm;28316;49.504;8.526;2023-11-19T02:27:57;49.32;47.24;50.76;;
42701;Laerm;28316;49.504;8.526;2023-11-19T02:30:24;50.49;49.47;52.13;;
42701;Laerm;28316;49.504;8.526;2023-11-19T02:35:26;50.24;49.47;50.83;;
42701;Laerm;28316;49.504;8.526;2023-11-19T02:37:52;50.39;49.70;51.10;;
42701;Laerm;28316;49.504;8.526;2023-11-19T02:40:18;50.94;49.00;51.34;;
42701;Laerm;28316;49.504;8.526;2023-11-19T02:42:44;51.00;50.49;51.47;;
42701;Laerm;28316;49.504;8.526;2023-11-19T02:45:10;50.96;50.56;51.37;;
42701;Laerm;28316;49.504;8.526;2023-11-19T02:47:43;51.13;50.52;51.93;;
42701;Laerm;28316;49.504;8.526;2023-11-19T02:50:12;52.03;50.81;55.71;;
42701;Laerm;28316;49.504;8.526;2023-11-19T02:52:44;52.22;51.38;53.93;;
42701;Laerm;28316;49.504;8.526;2023-11-19T02:55:11;51.59;51.19;52.00;;
42701;Laerm;28316;49.504;8.526;2023-11-19T02:57:41;51.49;51.08;51.88;;
42701;Laerm;28316;49.504;8.526;2023-11-19T03:00:21;51.56;51.24;51.88;;
42701;Laerm;28316;49.504;8.526;2023-11-19T03:02:56;51.51;51.12;51.86;;
42701;Laerm;28316;49.504;8.526;2023-11-19T03:05:27;51.54;51.20;51.88;;
42701;Laerm;28316;49.504;8.526;2023-11-19T03:07:55;51.90;51.21;53.41;;
42701;Laerm;28316;49.504;8.526;2023-11-19T03:10:22;55.40;52.88;58.00;;
42701;Laerm;28316;49.504;8.526;2023-11-19T03:12:47;54.37;53.86;55.04;;
42701;Laerm;28316;49.504;8.526;2023-11-19T03:15:13;53.92;53.52;54.30;;
42701;Laerm;28316;49.504;8.526;2023-11-19T03:17:41;53.66;53.17;54.07;;
42701;Laerm;28316;49.504;8.526;2023-11-19T03:20:10;52.86;50.83;53.73;;
42701;Laerm;28316;49.504;8.526;2023-11-19T03:22:39;53.27;52.72;53.64;;
42701;Laerm;28316;49.504;8.526;2023-11-19T03:25:07;52.75;51.84;53.52;;
42701;Laerm;28316;49.504;8.526;2023-11-19T03:27:37;52.12;51.56;52.93;;
42701;Laerm;28316;49.504;8.526;2023-11-19T03:30:12;52.23;51.67;52.88;;
42701;Laerm;28316;49.504;8.526;2023-11-19T03:32:38;52.11;51.60;52.76;;
42701;Laerm;28316;49.504;8.526;2023-11-19T03:35:05;52.61;51.59;54.95;;
42701;Laerm;28316;49.504;8.526;2023-11-19T03:37:34;54.95;54.21;56.30;;
42701;Laerm;28316;49.504;8.526;2023-11-19T03:40:01;55.63;54.90;56.01;;
42701;Laerm;28316;49.504;8.526;2023-11-19T03:42:27;54.93;54.05;55.86;;
42701;Laerm;28316;49.504;8.526;2023-11-19T03:44:53;54.26;53.84;54.63;;
42701;Laerm;28316;49.504;8.526;2023-11-19T03:47:19;54.13;53.78;54.48;;
42701;Laerm;28316;49.504;8.526;2023-11-19T03:49:49;54.24;53.80;54.71;;
42701;Laerm;28316;49.504;8.526;2023-11-19T03:52:17;54.10;53.67;54.41;;
42701;Laerm;28316;49.504;8.526;2023-11-19T03:54:44;53.96;53.53;54.30;;
42701;Laerm;28316;49.504;8.526;2023-11-19T03:57:12;53.96;53.63;54.26;;
42701;Laerm;28316;49.504;8.526;2023-11-19T03:59:39;53.90;53.49;54.24;;
42701;Laerm;28316;49.504;8.526;2023-11-19T04:02:05;53.77;53.31;54.16;;
42701;Laerm;28316;49.504;8.526;2023-11-19T04:04:31;53.47;52.66;53.90;;
42701;Laerm;28316;49.504;8.526;2023-11-19T04:06:59;52.05;51.43;53.15;;
42701;Laerm;28316;49.504;8.526;2023-11-19T04:09:26;51.75;51.37;52.20;;
42701;Laerm;28316;49.504;8.526;2023-11-19T04:11:52;52.10;51.08;54.24;;
42701;Laerm;28316;49.504;8.526;2023-11-19T04:14:18;51.21;50.79;51.69;;
42701;Laerm;28316;49.504;8.526;2023-11-19T04:16:45;51.23;50.80;51.62;;
42701;Laerm;28316;49.504;8.526;2023-11-19T04:19:11;53.98;51.01;59.14;;
42701;Laerm;28316;49.504;8.526;2023-11-19T04:21:40;54.37;53.83;55.39;;
42701;Laerm;28316;49.504;8.526;2023-11-19T04:24:07;55.06;54.07;55.90;;
42701;Laerm;28316;49.504;8.526;2023-11-19T04:26:33;55.68;55.20;56.04;;
42701;Laerm;28316;49.504;8.526;2023-11-19T04:28:59;55.27;54.69;55.89;;
42701;Laerm;28316;49.504;8.526;2023-11-19T04:31:29;55.17;54.65;55.63;;
42701;Laerm;28316;49.504;8.526;2023-11-19T04:33:57;54.75;54.12;55.39;;
42701;Laerm;28316;49.504;8.526;2023-11-19T04:36:22;54.43;54.08;54.77;;
42701;Laerm;28316;49.504;8.526;2023-11-19T04:38:50;56.21;53.98;59.73;;
42701;Laerm;28316;49.504;8.526;2023-11-19T04:41:16;56.77;56.06;57.60;;
42701;Laerm;28316;49.504;8.526;2023-11-19T04:43:42;57.19;56.45;57.67;;
42701;Laerm;28316;49.504;8.526;2023-11-19T04:46:09;56.15;55.08;56.99;;
42701;Laerm;28316;49.504;8.526;2023-11-19T04:48:35;54.21;52.89;55.57;;
42701;Laerm;28316;49.504;8.526;2023-11-19T04:51:04;51.87;51.03;53.48;;
42701;Laerm;28316;49.504;8.526;2023-11-19T04:53:30;50.91;49.77;51.63;;
42701;Laerm;28316;49.504;8.526;2023-11-19T04:55:56;48.68;47.76;50.54;;
42701;Laerm;28316;49.504;8.526;2023-11-19T04:58:22;48.10;47.54;48.90;;
42701;Laerm;28316;49.504;8.526;2023-11-19T05:00:48;47.97;47.44;48.45;;
42701;Laerm;28316;49.504;8.526;2023-11-19T05:03:13;47.78;47.22;48.39;;
42701;Laerm;28316;49.504;8.526;2023-11-19T05:05:39;47.62;47.08;48.16;;
42701;Laerm;28316;49.504;8.526;2023-11-19T05:08:05;47.07;45.57;47.93;;
42701;Laerm;28316;49.504;8.526;2023-11-19T05:10:30;42.69;40.62;46.55;;
42701;Laerm;28316;49.504;8.526;2023-11-19T05:12:56;41.35;40.03;42.41;;
42701;Laerm;28316;49.504;8.526;2023-11-19T05:15:22;40.95;39.68;42.03;;
42701;Laerm;28316;49.504;8.526;2023-11-19T05:17:48;40.83;39.57;41.82;;
42701;Laerm;28316;49.504;8.526;2023-11-19T05:20:14;40.62;39.08;41.68;;
42701;Laerm;28316;49.504;8.526;2023-11-19T05:22:43;40.42;39.21;41.53;;
42701;Laerm;28316;49.504;8.526;2023-11-19T05:25:09;40.25;38.81;41.38;;
42701;Laerm;28316;49.504;8.526;2023-11-19T05:27:37;40.14;38.67;41.30;;
42701;Laerm;28316;49.504;8.526;2023-11-19T05:30:06;40.03;38.67;41.38;;
42701;Laerm;28316;49.504;8.526;2023-11-19T05:32:36;39.91;38.21;41.22;;
42701;Laerm;28316;49.504;8.526;2023-11-19T05:35:02;39.85;38.05;41.22;;
42701;Laerm;28316;49.504;8.526;2023-11-19T05:37:28;39.91;38.37;41.14;;
42701;Laerm;28316;49.504;8.526;2023-11-19T05:39:54;39.52;37.12;41.06;;
42701;Laerm;28316;49.504;8.526;2023-11-19T05:42:20;39.24;36.45;40.71;;
42701;Laerm;28316;49.504;8.526;2023-11-19T05:44:45;39.45;37.35;40.89;;
42701;Laerm;28316;49.504;8.526;2023-11-19T05:47:11;38.08;30.89;40.13;;
42701;Laerm;28316;49.504;8.526;2023-11-19T05:49:37;38.11;29.92;39.81;;
42701;Laerm;28316;49.504;8.526;2023-11-19T05:52:04;38.09;32.35;39.92;;
42701;Laerm;28316;49.504;8.526;2023-11-19T05:54:33;37.82;30.89;39.70;;
42701;Laerm;28316;49.504;8.526;2023-11-19T05:57:06;37.98;26.91;39.92;;
42701;Laerm;28316;49.504;8.526;2023-11-19T05:59:35;37.92;31.68;39.70;;
42701;Laerm;28316;49.504;8.526;2023-11-19T06:02:02;37.91;23.90;39.81;;
42701;Laerm;28316;49.504;8.526;2023-11-19T06:04:28;37.95;32.35;39.70;;
42701;Laerm;28316;49.504;8.526;2023-11-19T06:06:54;37.94;32.93;39.81;;
42701;Laerm;28316;49.504;8.526;2023-11-19T06:09:21;37.96;30.89;40.03;;
42701;Laerm;28316;49.504;8.526;2023-11-19T06:11:50;37.96;31.68;39.70;;
42701;Laerm;28316;49.504;8.526;2023-11-19T06:14:16;37.99;31.68;40.03;;
42701;Laerm;28316;49.504;8.526;2023-11-19T06:16:42;38.03;31.68;39.81;;
42701;Laerm;28316;49.504;8.526;2023-11-19T06:19:08;38.04;32.93;39.81;;
42701;Laerm;28316;49.504;8.526;2023-11-19T06:21:33;38.05;32.35;39.81;;
42701;Laerm;28316;49.504;8.526;2023-11-19T06:24:01;38.03;30.89;39.92;;
42701;Laerm;28316;49.504;8.526;2023-11-19T06:26:27;38.01;32.35;39.81;;
42701;Laerm;28316;49.504;8.526;2023-11-19T06:28:52;38.00;33.90;39.92;;
42701;Laerm;28316;49.504;8.526;2023-11-19T06:31:18;37.95;30.89;39.89;;
42701;Laerm;28316;49.504;8.526;2023-11-19T06:33:44;37.97;32.00;39.92;;
42701;Laerm;28316;49.504;8.526;2023-11-19T06:36:14;37.95;30.89;39.92;;
42701;Laerm;28316;49.504;8.526;2023-11-19T06:38:42;37.95;29.92;39.92;;
42701;Laerm;28316;49.504;8.526;2023-11-19T06:41:09;37.93;30.89;39.81;;
42701;Laerm;28316;49.504;8.526;2023-11-19T06:43:37;37.91;30.89;40.03;;
42701;Laerm;28316;49.504;8.526;2023-11-19T06:46:03;37.91;31.68;39.81;;
42701;Laerm;28316;49.504;8.526;2023-11-19T06:48:32;37.86;32.93;39.81;;
42701;Laerm;28316;49.504;8.526;2023-11-19T06:50:59;37.84;32.35;39.58;;
42701;Laerm;28316;49.504;8.526;2023-11-19T06:53:25;37.81;31.68;39.70;;
42701;Laerm;28316;49.504;8.526;2023-11-19T06:55:50;37.79;32.35;39.70;;
42701;Laerm;28316;49.504;8.526;2023-11-19T06:58:16;37.74;30.89;39.58;;
42701;Laerm;28316;49.504;8.526;2023-11-19T07:00:43;37.73;29.92;39.92;;
42701;Laerm;28316;49.504;8.526;2023-11-19T07:03:09;37.72;31.68;39.70;;
42701;Laerm;28316;49.504;8.526;2023-11-19T07:05:36;37.72;32.35;39.70;;
42701;Laerm;28316;49.504;8.526;2023-11-19T07:08:06;37.66;30.89;39.81;;
42701;Laerm;28316;49.504;8.526;2023-11-19T07:10:33;37.64;30.89;39.70;;
42701;Laerm;28316;49.504;8.526;2023-11-19T07:12:59;37.64;30.89;39.81;;
42701;Laerm;28316;49.504;8.526;2023-11-19T07:15:25;37.64;30.89;39.58;;
42701;Laerm;28316;49.504;8.526;2023-11-19T07:17:51;37.64;30.89;39.81;;
42701;Laerm;28316;49.504;8.526;2023-11-19T07:20:20;37.60;30.89;39.70;;
42701;Laerm;28316;49.504;8.526;2023-11-19T07:22:45;37.54;31.68;39.70;;
42701;Laerm;28316;49.504;8.526;2023-11-19T07:25:13;37.44;30.89;39.70;;
42701;Laerm;28316;49.504;8.526;2023-11-19T07:27:39;37.44;23.90;39.70;;
42701;Laerm;28316;49.504;8.526;2023-11-19T07:30:06;37.45;29.92;39.81;;
42701;Laerm;28316;49.504;8.526;2023-11-19T07:32:35;37.45;28.67;39.70;;
42701;Laerm;28316;49.504;8.526;2023-11-19T07:35:01;37.45;28.67;39.58;;
42701;Laerm;28316;49.504;8.526;2023-11-19T07:37:26;37.48;30.89;39.58;;
42701;Laerm;28316;49.504;8.526;2023-11-19T07:39:52;37.38;30.89;39.58;;
42701;Laerm;28316;49.504;8.526;2023-11-19T07:42:18;37.36;26.91;39.58;;
42701;Laerm;28316;49.504;8.526;2023-11-19T07:44:44;37.32;28.67;39.46;;
42701;Laerm;28316;49.504;8.526;2023-11-19T07:47:10;37.24;29.92;39.46;;
42701;Laerm;28316;49.504;8.526;2023-11-19T07:49:36;37.22;30.89;39.46;;
42701;Laerm;28316;49.504;8.526;2023-11-19T07:52:01;37.17;28.67;39.70;;
42701;Laerm;28316;49.504;8.526;2023-11-19T07:54:28;37.11;28.67;39.70;;
42701;Laerm;28316;49.504;8.526;2023-11-19T07:56:54;37.11;28.67;39.70;;
42701;Laerm;28316;49.504;8.526;2023-11-19T07:59:21;37.09;26.56;39.70;;
42701;Laerm;28316;49.504;8.526;2023-11-19T08:01:47;37.04;28.67;39.21;;
42701;Laerm;28316;49.504;8.526;2023-11-19T08:04:13;36.73;28.67;39.21;;
42701;Laerm;28316;49.504;8.526;2023-11-19T08:06:39;36.46;26.91;39.58;;
42701;Laerm;28316;49.504;8.526;2023-11-19T08:09:05;37.92;32.93;40.03;;
42701;Laerm;28316;49.504;8.526;2023-11-19T08:11:33;38.27;33.90;40.03;;
42701;Laerm;28316;49.504;8.526;2023-11-19T08:13:59;38.25;34.69;42.29;;
42701;Laerm;28316;49.504;8.526;2023-11-19T08:16:24;37.90;29.92;40.13;;
42701;Laerm;28316;49.504;8.526;2023-11-19T08:18:50;37.36;29.92;39.70;;
42701;Laerm;28316;49.504;8.526;2023-11-19T08:21:19;37.40;26.91;39.70;;
42701;Laerm;28316;49.504;8.526;2023-11-19T08:23:46;37.20;28.67;39.70;;
42701;Laerm;28316;49.504;8.526;2023-11-19T08:26:12;37.45;29.92;39.92;;
42701;Laerm;28316;49.504;8.526;2023-11-19T08:28:40;37.79;32.35;39.81;;
42701;Laerm;28316;49.504;8.526;2023-11-19T08:31:06;37.95;32.93;39.81;;
42701;Laerm;28316;49.504;8.526;2023-11-19T08:33:32;37.95;31.68;39.81;;
42701;Laerm;28316;49.504;8.526;2023-11-19T08:36:00;38.19;33.44;40.23;;
42701;Laerm;28316;49.504;8.526;2023-11-19T08:38:26;38.21;33.44;39.92;;
42701;Laerm;28316;49.504;8.526;2023-11-19T08:40:52;38.26;34.31;40.23;;
42701;Laerm;28316;49.504;8.526;2023-11-19T08:43:17;38.25;33.90;39.92;;
42701;Laerm;28316;49.504;8.526;2023-11-19T08:45:43;38.25;32.93;39.92;;
42701;Laerm;28316;49.504;8.526;2023-11-19T08:48:09;38.24;33.90;40.13;;
42701;Laerm;28316;49.504;8.526;2023-11-19T08:50:35;38.36;34.69;40.03;;
42701;Laerm;28316;49.504;8.526;2023-11-19T08:53:00;38.50;35.36;40.13;;
42701;Laerm;28316;49.504;8.526;2023-11-19T08:55:26;38.55;36.20;40.62;;
42701;Laerm;28316;49.504;8.526;2023-11-19T08:57:52;38.54;36.10;40.13;;
42701;Laerm;28316;49.504;8.526;2023-11-19T09:00:18;38.58;36.56;40.43;;
42701;Laerm;28316;49.504;8.526;2023-11-19T09:02:44;38.56;36.20;40.03;;
42701;Laerm;28316;49.504;8.526;2023-11-19T09:05:09;38.58;34.69;40.23;;
42701;Laerm;28316;49.504;8.526;2023-11-19T09:07:35;38.61;36.45;40.33;;
42701;Laerm;28316;49.504;8.526;2023-11-19T09:10:01;38.64;36.45;40.53;;
42701;Laerm;28316;49.504;8.526;2023-11-19T09:12:27;38.63;36.20;40.33;;
42701;Laerm;28316;49.504;8.526;2023-11-19T09:14:52;38.51;35.36;40.13;;
42701;Laerm;28316;49.504;8.526;2023-11-19T09:17:18;38.32;33.44;40.03;;
42701;Laerm;28316;49.504;8.526;2023-11-19T09:19:44;38.38;32.93;40.23;;
42701;Laerm;28316;49.504;8.526;2023-11-19T09:22:10;38.53;35.59;40.53;;
42701;Laerm;28316;49.504;8.526;2023-11-19T09:24:35;38.41;34.31;40.23;;
42701;Laerm;28316;49.504;8.526;2023-11-19T09:27:01;38.35;34.31;40.23;;
42701;Laerm;28316;49.504;8.526;2023-11-19T09:29:27;38.15;32.93;39.92;;
42701;Laerm;28316;49.504;8.526;2023-11-19T09:31:52;37.66;28.67;39.81;;
42701;Laerm;28316;49.504;8.526;2023-11-19T09:34:18;35.89;23.90;39.58;;
42701;Laerm;28316;49.504;8.526;2023-11-19T09:36:44;36.86;5.00;40.03;;
42701;Laerm;28316;49.504;8.526;2023-11-19T09:39:13;36.62;26.91;39.58;;
42701;Laerm;28316;49.504;8.526;2023-11-19T09:41:44;37.02;23.90;39.58;;
42701;Laerm;28316;49.504;8.526;2023-11-19T09:44:11;36.70;30.89;39.34;;
42701;Laerm;28316;49.504;8.526;2023-11-19T09:46:40;36.74;30.89;39.34;;
42701;Laerm;28316;49.504;8.526;2023-11-19T09:49:08;36.84;31.68;39.21;;
42701;Laerm;28316;49.504;8.526;2023-11-19T09:51:36;37.26;32.93;39.81;;
42701;Laerm;28316;49.504;8.526;2023-11-19T09:54:02;39.43;35.36;41.68;;
42701;Laerm;28316;49.504;8.526;2023-11-19T09:56:29;40.11;37.88;43.77;;
42701;Laerm;28316;49.504;8.526;2023-11-19T09:58:55;40.24;38.37;43.24;;
42701;Laerm;28316;49.504;8.526;2023-11-19T10:01:21;40.44;38.60;46.84;;
42701;Laerm;28316;49.504;8.526;2023-11-19T10:03:48;40.24;38.37;43.39;;
42701;Laerm;28316;49.504;8.526;2023-11-19T10:06:15;40.40;38.67;45.39;;
42701;Laerm;28316;49.504;8.526;2023-11-19T10:08:43;40.25;38.37;44.97;;
42701;Laerm;28316;49.504;8.526;2023-11-19T10:11:09;40.01;38.21;43.72;;
42701;Laerm;28316;49.504;8.526;2023-11-19T10:13:38;39.86;38.02;42.35;;
42701;Laerm;28316;49.504;8.526;2023-11-19T10:16:09;40.05;38.05;42.71;;
42701;Laerm;28316;49.504;8.526;2023-11-19T10:18:37;40.27;38.37;43.86;;
42701;Laerm;28316;49.504;8.526;2023-11-19T10:21:06;41.16;39.34;49.41;;
42701;Laerm;28316;49.504;8.526;2023-11-19T10:23:55;41.16;39.58;49.78;;
42701;Laerm;28316;49.504;8.526;2023-11-19T10:26:26;41.26;39.68;43.58;;
42701;Laerm;28316;49.504;8.526;2023-11-19T10:28:53;41.50;39.81;46.02;;
42701;Laerm;28316;49.504;8.526;2023-11-19T10:31:20;42.05;40.03;54.08;;
42701;Laerm;28316;49.504;8.526;2023-11-19T10:33:51;41.62;40.13;47.00;;
42701;Laerm;28316;49.504;8.526;2023-11-19T10:36:17;41.70;40.13;51.67;;
42701;Laerm;28316;49.504;8.526;2023-11-19T10:39:03;41.64;40.03;45.99;;
42701;Laerm;28316;49.504;8.526;2023-11-19T10:41:30;41.81;40.43;43.68;;
42701;Laerm;28316;49.504;8.526;2023-11-19T10:43:59;41.97;40.53;44.03;;
42701;Laerm;28316;49.504;8.526;2023-11-19T10:46:51;41.98;40.53;47.93;;
42701;Laerm;28316;49.504;8.526;2023-11-19T10:49:19;42.00;40.33;45.11;;
42701;Laerm;28316;49.504;8.526;2023-11-19T10:51:45;42.14;40.62;53.89;;
42701;Laerm;28316;49.504;8.526;2023-11-19T10:54:14;42.07;40.23;50.87;;
42701;Laerm;28316;49.504;8.526;2023-11-19T10:56:43;41.99;40.62;47.96;;
42701;Laerm;28316;49.504;8.526;2023-11-19T10:59:11;41.90;40.43;47.86;;
42701;Laerm;28316;49.504;8.526;2023-11-19T11:01:44;42.57;40.23;59.01;;
42701;Laerm;28316;49.504;8.526;2023-11-19T11:04:14;41.48;39.81;49.10;;
42701;Laerm;28316;49.504;8.526;2023-11-19T11:06:43;41.22;39.58;44.87;;
42701;Laerm;28316;49.504;8.526;2023-11-19T11:09:11;41.04;39.34;42.88;;
42701;Laerm;28316;49.504;8.526;2023-11-19T11:11:40;40.85;39.23;42.29;;
42701;Laerm;28316;49.504;8.526;2023-11-19T11:14:12;40.84;39.08;47.75;;
42701;Laerm;28316;49.504;8.526;2023-11-19T11:16:42;40.62;39.34;41.96;;
42701;Laerm;28316;49.504;8.526;2023-11-19T11:19:10;40.48;38.67;42.09;;
42701;Laerm;28316;49.504;8.526;2023-11-19T11:21:42;40.32;38.37;41.75;;
42701;Laerm;28316;49.504;8.526;2023-11-19T11:39:13;40.25;38.05;42.16;;
42701;Laerm;28316;49.504;8.526;2023-11-19T11:41:40;40.41;38.81;42.09;;
42701;Laerm;28316;49.504;8.526;2023-11-19T11:44:06;40.50;38.81;41.96;;
42701;Laerm;28316;49.504;8.526;2023-11-19T11:49:03;40.90;39.34;42.41;;
42701;Laerm;28316;49.504;8.526;2023-11-19T11:51:58;41.19;39.58;44.83;;
42701;Laerm;28316;49.504;8.526;2023-11-19T11:54:28;41.30;39.81;43.04;;
42701;Laerm;28316;49.504;8.526;2023-11-19T11:57:12;41.54;39.92;43.29;;
42701;Laerm;28316;49.504;8.526;2023-11-19T12:02:13;41.74;40.13;48.28;;
42701;Laerm;28316;49.504;8.526;2023-11-19T12:04:46;41.79;40.43;46.18;;
42701;Laerm;28316;49.504;8.526;2023-11-19T12:07:32;41.67;40.43;42.76;;
42701;Laerm;28316;49.504;8.526;2023-11-19T12:10:09;41.70;40.23;44.94;;
42701;Laerm;28316;49.504;8.526;2023-11-19T12:12:37;41.68;40.23;43.04;;
42701;Laerm;28316;49.504;8.526;2023-11-19T12:15:08;41.67;40.23;43.72;;
42701;Laerm;28316;49.504;8.526;2023-11-19T12:17:38;41.67;40.33;46.02;;
42701;Laerm;28316;49.504;8.526;2023-11-19T12:20:07;41.66;40.23;46.48;;
42701;Laerm;28316;49.504;8.526;2023-11-19T12:22:41;41.64;40.03;46.50;;
42701;Laerm;28316;49.504;8.526;2023-11-19T12:25:09;41.60;40.23;42.71;;
42701;Laerm;28316;49.504;8.526;2023-11-19T12:27:47;41.65;40.23;43.29;;
42701;Laerm;28316;49.504;8.526;2023-11-19T12:30:24;41.62;40.33;42.82;;
42701;Laerm;28316;49.504;8.526;2023-11-19T12:32:51;41.65;40.13;44.23;;
42701;Laerm;28316;49.504;8.526;2023-11-19T12:35:19;41.77;40.43;50.75;;
42701;Laerm;28316;49.504;8.526;2023-11-19T12:37:50;42.21;40.13;57.48;;
42701;Laerm;28316;49.504;8.526;2023-11-19T12:40:21;42.03;39.81;54.98;;
42701;Laerm;28316;49.504;8.526;2023-11-19T12:42:54;42.36;40.53;59.74;;
42701;Laerm;28316;49.504;8.526;2023-11-19T12:45:20;42.35;40.23;62.76;;
42701;Laerm;28316;49.504;8.526;2023-11-19T12:47:47;42.09;40.33;51.04;;
42701;Laerm;28316;49.504;8.526;2023-11-19T12:50:14;43.13;40.53;58.22;;
42701;Laerm;28316;49.504;8.526;2023-11-19T12:52:41;42.06;40.43;49.84;;
42701;Laerm;28316;49.504;8.526;2023-11-19T12:55:29;42.20;40.33;54.85;;
42701;Laerm;28316;49.504;8.526;2023-11-19T12:57:56;42.85;40.03;60.28;;
42701;Laerm;28316;49.504;8.526;2023-11-19T13:00:24;42.97;40.43;60.52;;
42701;Laerm;28316;49.504;8.526;2023-11-19T13:02:52;41.89;40.23;51.26;;
42701;Laerm;28316;49.504;8.526;2023-11-19T13:05:30;42.01;40.33;51.76;;
42701;Laerm;28316;49.504;8.526;2023-11-19T13:10:28;42.16;40.33;55.39;;
42701;Laerm;28316;49.504;8.526;2023-11-19T13:13:07;41.86;40.53;48.18;;
42701;Laerm;28316;49.504;8.526;2023-11-19T13:15:36;41.86;40.36;45.17;;
42701;Laerm;28316;49.504;8.526;2023-11-19T13:18:02;41.80;40.33;43.99;;
42701;Laerm;28316;49.504;8.526;2023-11-19T13:20:29;41.88;39.81;48.91;;
42701;Laerm;28316;49.504;8.526;2023-11-19T13:23:02;41.80;40.23;52.89;;
42701;Laerm;28316;49.504;8.526;2023-11-19T13:25:29;41.60;39.92;44.16;;
42701;Laerm;28316;49.504;8.526;2023-11-19T13:27:55;41.64;39.81;45.66;;
42701;Laerm;28316;49.504;8.526;2023-11-19T13:30:23;41.65;40.03;44.73;;
42701;Laerm;28316;49.504;8.526;2023-11-19T13:32:50;41.61;40.13;42.93;;
42701;Laerm;28316;49.504;8.526;2023-11-19T13:35:17;41.59;39.81;43.14;;
42701;Laerm;28316;49.504;8.526;2023-11-19T13:37:44;41.66;40.03;43.04;;
42701;Laerm;28316;49.504;8.526;2023-11-19T13:40:11;41.72;40.23;43.29;;
42701;Laerm;28316;49.504;8.526;2023-11-19T13:42:43;41.74;40.13;44.73;;
42701;Laerm;28316;49.504;8.526;2023-11-19T13:45:14;41.75;40.13;43.14;;
42701;Laerm;28316;49.504;8.526;2023-11-19T13:47:44;41.77;40.43;43.58;;
42701;Laerm;28316;49.504;8.526;2023-11-19T13:50:12;41.79;40.43;45.14;;
42701;Laerm;28316;49.504;8.526;2023-11-19T13:52:40;42.38;39.34;57.01;;
42701;Laerm;28316;49.504;8.526;2023-11-19T13:55:08;41.39;39.46;51.33;;
42701;Laerm;28316;49.504;8.526;2023-11-19T13:57:39;41.70;38.67;53.70;;
42701;Laerm;28316;49.504;8.526;2023-11-19T14:00:07;41.15;38.95;43.54;;
42701;Laerm;28316;49.504;8.526;2023-11-19T14:02:42;42.66;38.81;63.59;;
42701;Laerm;28316;49.504;8.526;2023-11-19T14:05:11;42.89;38.21;61.36;;
42701;Laerm;28316;49.504;8.526;2023-11-19T14:07:40;41.52;39.08;54.90;;
42701;Laerm;28316;49.504;8.526;2023-11-19T14:10:08;41.41;39.08;49.45;;
42701;Laerm;28316;49.504;8.526;2023-11-19T14:12:37;42.97;39.89;61.35;;